Time;durP1;ratioP1;P1;durP2;ratioP2;P2;SDS_P1;SDS_P2;PMS_P1;PMS_P2;Temp;Humidity;BMP_temperature;BMP_pressure;BME280_temperature;BME280_humidity;BME280_pressure;Samples;Min_cycle;Max_cycle;Signal;HPM_P1;HPM_P2
2023/10/01 03:02:24;;;;;;;4.60;3.65;;;22.60;49.60;;;;;;5053284;23;46415;-79
2023/10/01 03:04:50;;;;;;;6.05;3.95;;;22.60;49.70;;;;;;4902591;28;45501;-80
2023/10/01 03:07:17;;;;;;;6.20;3.93;;;22.60;49.60;;;;;;4923572;28;45011;-82
2023/10/01 03:09:43;;;;;;;6.23;3.70;;;22.60;49.60;;;;;;4895143;28;45259;-81
2023/10/01 03:17:38;;;;;;;7.03;4.30;;;22.60;49.60;;;;;;4903136;28;45210;-81
2023/10/01 03:22:56;;;;;;;5.45;3.97;;;22.60;49.50;;;;;;4905818;28;45523;-83
2023/10/01 03:25:28;;;;;;;5.43;3.67;;;22.60;49.50;;;;;;4916328;28;45349;-81
2023/10/01 03:28:01;;;;;;;5.80;4.00;;;22.60;49.50;;;;;;4892086;28;45867;-80
2023/10/01 03:30:33;;;;;;;5.55;3.92;;;22.60;49.50;;;;;;4904296;28;45678;-89
2023/10/01 03:33:07;;;;;;;5.95;4.10;;;22.60;49.50;;;;;;4923094;28;45445;-80
2023/10/01 03:35:34;;;;;;;6.40;4.20;;;22.60;49.40;;;;;;4894723;28;45369;-81
2023/10/01 03:38:10;;;;;;;6.45;4.47;;;22.60;49.40;;;;;;4892890;28;44988;-80
2023/10/01 03:40:57;;;;;;;6.30;4.05;;;22.60;49.40;;;;;;4890524;28;45241;-82
2023/10/01 03:43:31;;;;;;;6.63;3.92;;;22.60;49.40;;;;;;4907361;28;45192;-80
2023/10/01 03:46:19;;;;;;;6.33;4.20;;;22.60;49.40;;;;;;4901401;28;44775;-84
2023/10/01 03:51:29;;;;;;;6.88;4.63;;;22.60;49.40;;;;;;4895296;28;45408;-80
2023/10/01 03:54:06;;;;;;;6.73;4.30;;;22.60;49.40;;;;;;4926178;28;46480;-81
2023/10/01 03:56:33;;;;;;;5.25;3.95;;;22.60;49.40;;;;;;4914733;28;45496;-80
2023/10/01 03:58:59;;;;;;;5.90;4.05;;;22.60;49.30;;;;;;4913656;28;45312;-79
2023/10/01 04:01:34;;;;;;;7.47;4.40;;;22.60;49.30;;;;;;4921005;28;45042;-83
2023/10/01 04:04:00;;;;;;;6.75;4.03;;;22.60;49.30;;;;;;4912425;28;45335;-79
2023/10/01 04:06:27;;;;;;;5.83;3.90;;;22.60;49.30;;;;;;4921240;28;45631;-81
2023/10/01 04:08:55;;;;;;;5.30;3.90;;;22.60;49.30;;;;;;4883054;28;45387;-80
2023/10/01 04:11:41;;;;;;;5.60;3.87;;;22.50;49.20;;;;;;4889601;28;44955;-82
2023/10/01 04:14:17;;;;;;;6.13;4.30;;;22.50;49.20;;;;;;4896525;28;46025;-82
2023/10/01 04:16:46;;;;;;;6.35;4.18;;;22.50;49.10;;;;;;4906293;28;45337;-80
2023/10/01 04:19:18;;;;;;;6.47;4.33;;;22.50;49.10;;;;;;4907888;28;46258;-80
2023/10/01 04:21:50;;;;;;;5.82;3.97;;;22.50;49.10;;;;;;4887174;28;45103;-82
2023/10/01 04:24:17;;;;;;;5.70;4.10;;;22.50;49.10;;;;;;4907980;28;46229;-81
2023/10/01 04:26:42;;;;;;;6.90;3.95;;;22.50;49.10;;;;;;4907060;28;45254;-81
2023/10/01 04:29:08;;;;;;;5.93;4.13;;;22.60;49.10;;;;;;4897183;28;44770;-80
2023/10/01 04:31:47;;;;;;;6.47;3.97;;;22.50;49.10;;;;;;4902907;28;45198;-82
2023/10/01 04:34:14;;;;;;;5.45;4.30;;;22.50;49.00;;;;;;4905105;28;46298;-82
2023/10/01 04:36:43;;;;;;;4.60;3.57;;;22.50;49.00;;;;;;4910046;28;44897;-81
2023/10/01 04:39:09;;;;;;;5.53;4.13;;;22.50;49.00;;;;;;4917718;28;45584;-83
2023/10/01 04:41:35;;;;;;;5.80;3.80;;;22.50;49.00;;;;;;4889432;28;45282;-81
2023/10/01 04:44:07;;;;;;;5.13;3.80;;;22.50;49.00;;;;;;4919135;28;45993;-80
2023/10/01 04:46:37;;;;;;;5.83;3.80;;;22.50;49.00;;;;;;4888758;28;45319;-82
2023/10/01 04:49:27;;;;;;;4.88;3.70;;;22.50;48.90;;;;;;4918083;28;45534;-80
2023/10/01 04:51:58;;;;;;;5.65;3.78;;;22.50;48.90;;;;;;4905246;28;45552;-83
2023/10/01 04:54:26;;;;;;;5.67;3.77;;;22.50;48.90;;;;;;4891538;28;45534;-85
2023/10/01 04:56:51;;;;;;;6.00;4.00;;;22.50;48.90;;;;;;4903682;28;45397;-80
2023/10/01 04:59:18;;;;;;;5.53;3.77;;;22.50;48.90;;;;;;4895678;28;45394;-81
2023/10/01 05:01:44;;;;;;;5.43;3.60;;;22.50;48.90;;;;;;4901389;28;45564;-82
2023/10/01 05:04:14;;;;;;;5.43;3.78;;;22.50;48.90;;;;;;4895936;28;47836;-84
2023/10/01 05:06:43;;;;;;;4.68;3.63;;;22.50;48.90;;;;;;4910486;28;45535;-80
2023/10/01 05:09:09;;;;;;;5.43;3.90;;;22.50;48.90;;;;;;4894353;28;45314;-81
2023/10/01 05:11:36;;;;;;;4.88;3.63;;;22.50;48.80;;;;;;4886965;28;45217;-80
2023/10/01 05:14:04;;;;;;;4.70;3.45;;;22.50;48.80;;;;;;4923341;28;45520;-80
2023/10/01 05:16:31;;;;;;;4.88;3.70;;;22.50;48.80;;;;;;4906653;28;44938;-81
2023/10/01 05:19:10;;;;;;;4.20;3.33;;;22.50;48.80;;;;;;4926567;28;45230;-85
2023/10/01 05:21:46;;;;;;;4.75;3.70;;;22.50;48.80;;;;;;4904915;28;45230;-80
2023/10/01 05:24:15;;;;;;;4.95;3.53;;;22.50;48.80;;;;;;4920933;28;46104;-81
2023/10/01 05:26:43;;;;;;;4.88;3.38;;;22.50;48.80;;;;;;4906093;28;45119;-82
2023/10/01 05:29:10;;;;;;;4.65;3.60;;;22.40;48.70;;;;;;4903628;28;45606;-86
2023/10/01 05:31:39;;;;;;;5.03;3.33;;;22.40;48.70;;;;;;4882006;28;44791;-81
2023/10/01 05:34:05;;;;;;;4.50;3.53;;;22.40;48.70;;;;;;4896339;28;45438;-81
2023/10/01 05:36:32;;;;;;;5.00;3.70;;;22.50;48.70;;;;;;4890630;28;45111;-80
2023/10/01 05:39:00;;;;;;;4.80;3.27;;;22.40;48.70;;;;;;4924214;28;45538;-80
2023/10/01 05:41:32;;;;;;;3.97;3.23;;;22.40;48.60;;;;;;4918169;28;45401;-81
2023/10/01 05:44:01;;;;;;;5.15;3.40;;;22.40;48.60;;;;;;4923074;28;45169;-83
2023/10/01 05:46:30;;;;;;;4.53;3.30;;;22.40;48.60;;;;;;4896761;28;45641;-82
2023/10/01 05:49:00;;;;;;;5.13;3.67;;;22.40;48.60;;;;;;4873994;28;45158;-81
2023/10/01 05:54:21;;;;;;;6.05;3.55;;;22.40;48.60;;;;;;4896043;28;47449;-83
2023/10/01 05:56:48;;;;;;;4.27;3.20;;;22.40;48.60;;;;;;4891045;28;45628;-82
2023/10/01 05:59:15;;;;;;;4.30;3.38;;;22.40;48.50;;;;;;4915579;28;45261;-82
2023/10/01 06:01:41;;;;;;;4.70;3.30;;;22.40;48.50;;;;;;4879101;28;45331;-83
2023/10/01 06:04:12;;;;;;;4.15;3.10;;;22.40;48.50;;;;;;4920349;28;45536;-83
2023/10/01 06:06:42;;;;;;;4.32;3.25;;;22.40;48.50;;;;;;4903257;28;45356;-87
2023/10/01 06:09:09;;;;;;;4.53;3.33;;;22.40;48.50;;;;;;4922331;28;45211;-80
2023/10/01 06:11:38;;;;;;;4.25;3.17;;;22.40;48.50;;;;;;4885888;28;45522;-80
2023/10/01 06:14:06;;;;;;;4.20;3.25;;;22.40;48.50;;;;;;4905509;28;46257;-81
2023/10/01 06:16:39;;;;;;;4.20;3.20;;;22.40;48.50;;;;;;4902141;28;45480;-80
2023/10/01 06:19:11;;;;;;;4.30;3.40;;;22.40;48.50;;;;;;4925782;28;45102;-80
2023/10/01 06:21:39;;;;;;;4.63;3.10;;;22.30;48.40;;;;;;4917510;28;45345;-81
2023/10/01 06:24:07;;;;;;;4.30;3.10;;;22.40;48.50;;;;;;4906353;28;44984;-79
2023/10/01 06:26:50;;;;;;;3.83;3.00;;;22.40;48.40;;;;;;4926579;28;45235;-81
2023/10/01 06:29:16;;;;;;;4.32;3.00;;;22.30;48.40;;;;;;4895644;28;44643;-80
2023/10/01 06:31:52;;;;;;;4.60;3.30;;;22.30;48.40;;;;;;4903425;28;44859;-83
2023/10/01 06:34:21;;;;;;;4.28;3.20;;;22.40;48.50;;;;;;4930376;28;47517;-80
2023/10/01 06:37:22;;;;;;;4.25;3.22;;;22.40;48.40;;;;;;4919570;28;45418;-80
2023/10/01 06:39:47;;;;;;;3.72;2.95;;;22.30;48.40;;;;;;4923855;28;44952;-79
2023/10/01 06:42:20;;;;;;;4.20;3.10;;;22.40;48.50;;;;;;4873076;28;45744;-79
2023/10/01 06:44:49;;;;;;;3.65;2.90;;;22.30;48.40;;;;;;4913880;28;45374;-79
2023/10/01 06:47:22;;;;;;;4.85;3.33;;;22.40;48.50;;;;;;4885057;28;45447;-80
2023/10/01 06:52:34;;;;;;;6.25;3.20;;;22.30;48.40;;;;;;4899580;28;45113;-80
2023/10/01 06:55:07;;;;;;;4.63;3.10;;;22.30;48.40;;;;;;4906095;28;46344;-80
2023/10/01 06:57:38;;;;;;;3.97;3.05;;;22.30;48.40;;;;;;4878552;28;45689;-89
2023/10/01 07:00:21;;;;;;;4.10;3.00;;;22.30;48.40;;;;;;4889117;28;45551;-82
2023/10/01 07:02:49;;;;;;;4.80;3.22;;;22.40;48.50;;;;;;4922602;28;45346;-79
2023/10/01 07:05:22;;;;;;;5.05;3.13;;;22.30;48.40;;;;;;4920261;28;46222;-80
2023/10/01 07:07:52;;;;;;;3.88;2.95;;;22.30;48.40;;;;;;4915352;28;45266;-80
2023/10/01 07:10:21;;;;;;;4.15;3.22;;;22.40;48.50;;;;;;4900394;28;45533;-80
2023/10/01 07:13:04;;;;;;;4.10;3.20;;;22.30;48.50;;;;;;4927563;28;45002;-83
2023/10/01 07:15:34;;;;;;;4.90;3.25;;;22.30;48.40;;;;;;4920189;28;45471;-79
2023/10/01 07:18:13;;;;;;;4.35;3.28;;;22.30;48.40;;;;;;4887486;28;45379;-81
2023/10/01 07:20:44;;;;;;;5.00;3.40;;;22.30;48.40;;;;;;4903117;28;45555;-82
2023/10/01 07:23:11;;;;;;;4.50;3.17;;;22.30;48.50;;;;;;4902340;28;45215;-79
2023/10/01 07:25:39;;;;;;;5.03;3.10;;;22.30;48.50;;;;;;4913849;28;46127;-81
2023/10/01 07:28:12;;;;;;;4.80;3.35;;;22.30;48.70;;;;;;4900150;28;45148;-79
2023/10/01 07:30:45;;;;;;;3.97;2.97;;;22.30;48.50;;;;;;4888738;28;45722;-83
2023/10/01 07:33:14;;;;;;;5.40;3.63;;;22.30;48.50;;;;;;4917417;28;46024;-79
2023/10/01 07:35:41;;;;;;;3.58;3.03;;;22.30;48.50;;;;;;4883603;28;46118;-88
2023/10/01 07:38:07;;;;;;;3.87;3.13;;;22.30;48.50;;;;;;4902664;28;44719;-81
2023/10/01 07:40:52;;;;;;;4.03;3.13;;;22.30;48.50;;;;;;4902720;28;45240;-80
2023/10/01 07:43:18;;;;;;;5.88;3.60;;;22.30;48.50;;;;;;4920357;28;45617;-80
2023/10/01 07:45:55;;;;;;;5.13;3.17;;;22.30;48.50;;;;;;4914483;28;45195;-79
2023/10/01 07:48:23;;;;;;;4.00;3.05;;;22.30;48.50;;;;;;4895660;28;45539;-80
2023/10/01 07:50:51;;;;;;;5.00;3.47;;;22.30;48.50;;;;;;4903750;28;45311;-83
2023/10/01 07:53:18;;;;;;;4.25;3.28;;;22.30;48.50;;;;;;4887995;28;45045;-82
2023/10/01 07:55:46;;;;;;;3.75;2.95;;;22.30;48.50;;;;;;4902337;28;45981;-80
2023/10/01 07:58:24;;;;;;;5.57;3.40;;;22.30;48.50;;;;;;4906294;28;45815;-79
2023/10/01 08:00:58;;;;;;;5.07;3.30;;;22.30;48.50;;;;;;4897095;28;45425;-81
2023/10/01 08:06:09;;;;;;;4.88;3.10;;;22.30;48.50;;;;;;4907441;28;46242;-79
2023/10/01 08:08:37;;;;;;;4.53;3.47;;;22.30;48.50;;;;;;4906073;28;45724;-80
2023/10/01 08:13:51;;;;;;;4.35;3.10;;;22.30;48.50;;;;;;4919100;28;45289;-80
2023/10/01 08:16:17;;;;;;;5.50;3.27;;;22.30;48.50;;;;;;4898796;28;46007;-80
2023/10/01 08:18:46;;;;;;;5.65;3.03;;;22.30;48.60;;;;;;4888950;28;45064;-83
2023/10/01 08:21:18;;;;;;;4.65;3.30;;;22.20;48.50;;;;;;4874551;28;45668;-81
2023/10/01 08:23:54;;;;;;;5.38;3.40;;;22.30;48.50;;;;;;4920720;28;44803;-80
2023/10/01 08:29:06;;;;;;;4.30;3.42;;;22.30;48.60;;;;;;4892744;28;45032;-83
2023/10/01 08:34:23;;;;;;;4.93;3.45;;;22.30;48.60;;;;;;4923638;28;45602;-80
2023/10/01 08:36:54;;;;;;;4.68;3.40;;;22.30;48.60;;;;;;4891576;28;46515;-81
2023/10/01 08:39:33;;;;;;;5.40;3.43;;;22.30;48.60;;;;;;4905389;28;45296;-82
2023/10/01 08:42:08;;;;;;;5.07;3.60;;;22.30;48.60;;;;;;4892339;28;45550;-80
2023/10/01 08:44:44;;;;;;;4.03;3.30;;;22.30;48.60;;;;;;4926654;28;45463;-79
2023/10/01 08:50:15;;;;;;;5.47;3.50;;;22.30;48.60;;;;;;4909644;28;45219;-81
2023/10/01 08:52:52;;;;;;;5.03;3.70;;;22.30;48.60;;;;;;4899483;28;44906;-80
2023/10/01 08:58:25;;;;;;;4.25;3.10;;;22.30;48.60;;;;;;4894935;28;45955;-80
2023/10/01 09:00:56;;;;;;;5.37;3.80;;;22.30;48.60;;;;;;4921801;28;44902;-82
2023/10/01 09:03:30;;;;;;;5.90;4.00;;;22.30;48.60;;;;;;4894015;28;45313;-80
2023/10/01 09:06:30;;;;;;;5.20;3.55;;;22.30;48.60;;;;;;4918285;28;44695;-80
2023/10/01 09:08:54;;;;;;;4.87;3.70;;;22.30;48.60;;;;;;4912637;28;47121;-84
2023/10/01 09:11:42;;;;;;;5.00;3.70;;;22.30;48.70;;;;;;4886074;28;45930;-83
2023/10/01 09:14:25;;;;;;;4.80;3.50;;;22.30;48.60;;;;;;4906931;28;45517;-79
2023/10/01 09:16:57;;;;;;;6.63;3.90;;;22.30;48.60;;;;;;4908120;28;45882;-83
2023/10/01 09:19:30;;;;;;;4.65;3.28;;;22.30;48.70;;;;;;4887678;28;46772;-84
2023/10/01 09:21:56;;;;;;;5.45;3.40;;;22.30;48.70;;;;;;4889149;28;45432;-81
2023/10/01 09:24:34;;;;;;;5.10;3.70;;;22.30;48.70;;;;;;4893158;28;45171;-84
2023/10/01 09:27:18;;;;;;;5.30;3.80;;;22.30;48.70;;;;;;4892933;28;45279;-82
2023/10/01 09:29:56;;;;;;;5.88;3.72;;;22.30;48.70;;;;;;4905344;28;46140;-86
2023/10/01 09:32:21;;;;;;;5.18;3.63;;;22.30;48.70;;;;;;4902496;28;45289;-82
2023/10/01 09:34:57;;;;;;;5.15;3.58;;;22.30;48.70;;;;;;4888364;28;45469;-80
2023/10/01 09:37:42;;;;;;;4.73;3.53;;;22.30;48.70;;;;;;4904458;28;45322;-83
2023/10/01 09:40:32;;;;;;;5.63;3.75;;;22.30;48.70;;;;;;4905430;28;46233;-83
2023/10/01 09:43:03;;;;;;;5.10;3.67;;;22.30;48.70;;;;;;4906810;28;44874;-82
2023/10/01 09:45:37;;;;;;;4.90;3.80;;;22.30;48.70;;;;;;4869041;28;45250;-81
2023/10/01 09:48:09;;;;;;;5.82;3.80;;;22.30;48.70;;;;;;4890989;28;45400;-81
2023/10/01 09:50:41;;;;;;;5.53;3.92;;;22.30;48.70;;;;;;4885482;28;46409;-80
2023/10/01 09:53:15;;;;;;;5.60;3.47;;;22.30;48.80;;;;;;4918848;28;44923;-80
2023/10/01 09:55:55;;;;;;;5.22;3.70;;;22.30;48.70;;;;;;4876826;28;45522;-83
2023/10/01 09:58:24;;;;;;;5.80;3.90;;;22.40;48.80;;;;;;4893607;28;45530;-81
2023/10/01 10:01:08;;;;;;;5.47;3.60;;;22.30;48.80;;;;;;4887154;28;45942;-80
2023/10/01 10:03:37;;;;;;;5.72;3.75;;;22.30;48.80;;;;;;4892500;28;45326;-81
2023/10/01 10:06:06;;;;;;;5.10;3.70;;;22.30;48.80;;;;;;4905371;28;45562;-82
2023/10/01 10:08:36;;;;;;;5.50;3.90;;;22.30;48.80;;;;;;4912737;28;45463;-84
2023/10/01 10:11:02;;;;;;;5.37;3.90;;;22.30;48.80;;;;;;4879344;28;46452;-83
2023/10/01 10:13:45;;;;;;;5.90;4.10;;;22.30;48.80;;;;;;4902617;28;44886;-80
2023/10/01 10:16:31;;;;;;;5.93;3.95;;;22.30;48.80;;;;;;4898050;28;45262;-81
2023/10/01 10:19:12;;;;;;;6.10;4.07;;;22.30;48.80;;;;;;4903203;28;45604;-83
2023/10/01 10:24:30;;;;;;;5.03;3.55;;;22.30;48.80;;;;;;4918579;28;45318;-82
2023/10/01 10:26:57;;;;;;;5.10;3.50;;;22.30;48.80;;;;;;4913164;28;45193;-83
2023/10/01 10:29:23;;;;;;;5.43;4.05;;;22.30;48.80;;;;;;4905513;28;45571;-80
2023/10/01 10:32:09;;;;;;;5.07;3.70;;;22.30;48.80;;;;;;4882661;28;46177;-82
2023/10/01 10:34:36;;;;;;;5.10;3.70;;;22.30;48.80;;;;;;4904888;28;45540;-81
2023/10/01 10:37:06;;;;;;;5.68;3.83;;;22.30;48.90;;;;;;4870455;28;45076;-80
2023/10/01 10:39:48;;;;;;;5.35;3.90;;;22.30;48.90;;;;;;4918023;28;45760;-81
2023/10/01 10:42:29;;;;;;;5.10;3.70;;;22.30;48.90;;;;;;4901167;28;46272;-80
2023/10/01 10:45:23;;;;;;;5.68;4.00;;;22.30;48.90;;;;;;4919249;28;45099;-81
2023/10/01 10:47:59;;;;;;;5.22;3.80;;;22.30;48.90;;;;;;4914543;28;45388;-82
2023/10/01 10:50:44;;;;;;;6.05;4.18;;;22.30;48.90;;;;;;4883797;28;44767;-86
2023/10/01 10:53:19;;;;;;;5.28;3.78;;;22.30;48.90;;;;;;4915066;28;45703;-83
2023/10/01 10:56:02;;;;;;;4.88;3.65;;;22.30;48.90;;;;;;4898737;28;45163;-80
2023/10/01 10:58:29;;;;;;;5.60;3.85;;;22.30;48.90;;;;;;4919151;28;45665;-85
2023/10/01 11:00:55;;;;;;;6.60;4.28;;;22.30;49.00;;;;;;4915461;28;45255;-85
2023/10/01 11:03:43;;;;;;;5.20;3.70;;;22.40;49.00;;;;;;4899776;28;45421;-84
2023/10/01 11:06:47;;;;;;;6.03;3.83;;;22.30;49.00;;;;;;4882089;28;45623;-81
2023/10/01 11:09:22;;;;;;;6.30;4.00;;;22.40;49.00;;;;;;4890319;28;45384;-80
2023/10/01 11:11:50;;;;;;;5.72;3.83;;;22.30;49.00;;;;;;4899206;28;45242;-85
2023/10/01 11:14:17;;;;;;;5.05;3.80;;;22.40;49.10;;;;;;4917670;28;45155;-86
2023/10/01 11:16:46;;;;;;;5.27;3.90;;;22.30;49.00;;;;;;4909579;28;45252;-81
2023/10/01 11:19:12;;;;;;;6.45;4.22;;;22.40;49.10;;;;;;4885400;28;45060;-80
2023/10/01 11:21:58;;;;;;;5.65;3.80;;;22.40;49.10;;;;;;4902304;28;45174;-80
2023/10/01 11:24:30;;;;;;;6.40;4.13;;;22.40;49.10;;;;;;4919179;28;45954;-80
2023/10/01 11:30:13;;;;;;;5.90;4.10;;;22.40;49.10;;;;;;4918303;28;45891;-87
2023/10/01 11:32:58;;;;;;;5.30;3.70;;;22.40;49.10;;;;;;4887356;28;45421;-82
2023/10/01 11:35:31;;;;;;;6.45;4.28;;;22.40;49.10;;;;;;4913664;28;45015;-82
2023/10/01 11:38:07;;;;;;;5.20;3.80;;;22.40;49.10;;;;;;4888103;28;45751;-80
2023/10/01 11:43:27;;;;;;;6.90;4.03;;;22.40;49.10;;;;;;4906555;28;45048;-80
2023/10/01 11:46:19;;;;;;;5.65;3.78;;;22.40;49.20;;;;;;4901802;28;46250;-79
2023/10/01 11:49:18;;;;;;;5.70;3.78;;;22.40;49.20;;;;;;4903242;28;45626;-81
2023/10/01 11:51:45;;;;;;;6.43;4.20;;;22.40;49.20;;;;;;4915028;28;45506;-79
2023/10/01 11:54:18;;;;;;;5.47;3.95;;;22.40;49.20;;;;;;4902880;28;44829;-80
2023/10/01 11:57:22;;;;;;;6.30;4.05;;;22.40;49.20;;;;;;4897835;28;45600;-81
2023/10/01 11:59:54;;;;;;;5.63;3.80;;;22.40;49.20;;;;;;4911398;28;45270;-85
2023/10/01 12:02:26;;;;;;;5.13;3.70;;;22.40;49.20;;;;;;4887912;28;44775;-80
2023/10/01 12:04:58;;;;;;;6.00;3.78;;;22.40;49.20;;;;;;4919092;28;45224;-83
2023/10/01 12:07:26;;;;;;;5.63;3.63;;;22.50;49.20;;;;;;4871859;28;46616;-79
2023/10/01 12:09:53;;;;;;;5.22;3.60;;;22.40;49.20;;;;;;4921628;28;44690;-80
2023/10/01 12:12:21;;;;;;;5.38;4.05;;;22.40;49.20;;;;;;4916059;28;45331;-83
2023/10/01 12:14:53;;;;;;;7.20;4.05;;;22.40;49.20;;;;;;4890719;28;45243;-81
2023/10/01 12:17:23;;;;;;;5.70;3.92;;;22.40;49.20;;;;;;4868713;28;46531;-84
2023/10/01 12:20:22;;;;;;;5.22;3.70;;;22.50;49.30;;;;;;4890499;28;46238;-80
2023/10/01 12:23:08;;;;;;;6.97;3.97;;;22.40;49.20;;;;;;4894202;28;45572;-79
2023/10/01 12:25:46;;;;;;;6.40;4.05;;;22.40;49.20;;;;;;4886874;28;45845;-80
2023/10/01 12:28:32;;;;;;;6.90;3.83;;;22.40;49.30;;;;;;4889577;28;44975;-86
2023/10/01 12:31:09;;;;;;;5.25;3.67;;;22.40;49.30;;;;;;4908765;28;44723;-82
2023/10/01 12:33:38;;;;;;;5.97;4.20;;;22.40;49.30;;;;;;4882377;28;44675;-83
2023/10/01 12:41:47;;;;;;;4.90;3.60;;;22.40;49.30;;;;;;4920484;28;45219;-80
2023/10/01 12:44:24;;;;;;;6.18;3.95;;;22.40;49.30;;;;;;4895946;28;45491;-82
2023/10/01 12:46:51;;;;;;;6.30;4.10;;;22.40;49.30;;;;;;4906474;28;45472;-81
2023/10/01 12:49:18;;;;;;;5.93;4.00;;;22.40;49.30;;;;;;4906653;28;47270;-86
2023/10/01 12:51:53;;;;;;;6.60;3.97;;;22.40;49.40;;;;;;4906025;28;45539;-80
2023/10/01 12:54:25;;;;;;;5.67;4.07;;;22.40;49.40;;;;;;4912834;28;45217;-80
2023/10/01 12:57:18;;;;;;;7.03;4.28;;;22.40;49.40;;;;;;4908505;28;45881;-83
2023/10/01 13:00:02;;;;;;;6.65;4.10;;;22.50;49.40;;;;;;4912441;28;46749;-80
2023/10/01 13:02:45;;;;;;;6.10;4.05;;;22.40;49.40;;;;;;4895564;28;45141;-81
2023/10/01 13:05:19;;;;;;;5.82;3.92;;;22.40;49.40;;;;;;4923855;28;45469;-80
2023/10/01 13:07:57;;;;;;;5.80;3.90;;;22.40;49.40;;;;;;4913473;28;44932;-80
2023/10/01 13:10:35;;;;;;;6.15;4.10;;;22.40;49.40;;;;;;4890935;28;46470;-81
2023/10/01 13:13:05;;;;;;;7.23;4.20;;;22.40;49.40;;;;;;4893608;28;45216;-80
2023/10/01 13:15:30;;;;;;;6.43;4.22;;;22.50;49.50;;;;;;4878958;28;46116;-81
2023/10/01 13:18:04;;;;;;;6.25;4.13;;;22.40;49.40;;;;;;4897797;29;45281;-82
2023/10/01 13:20:48;;;;;;;5.93;4.30;;;22.40;49.40;;;;;;4904204;28;45508;-80
2023/10/01 13:23:14;;;;;;;6.05;4.07;;;22.40;49.50;;;;;;4922671;28;45269;-80
2023/10/01 13:26:05;;;;;;;6.07;4.00;;;22.40;49.50;;;;;;4906443;28;45272;-83
2023/10/01 13:28:43;;;;;;;6.43;3.90;;;22.40;49.50;;;;;;4920813;28;45114;-82
2023/10/01 13:31:12;;;;;;;6.10;4.07;;;22.40;49.50;;;;;;4893199;28;47421;-81
2023/10/01 13:39:25;;;;;;;6.35;4.28;;;22.40;49.50;;;;;;4900139;28;45384;-80
2023/10/01 14:09:47;;;;;;;5.30;3.72;;;22.40;49.60;;;;;;4865894;28;45470;-81
2023/10/01 14:12:14;;;;;;;6.28;4.18;;;22.40;50.20;;;;;;4882683;28;45563;-80
2023/10/01 14:14:43;;;;;;;6.65;4.05;;;22.40;49.60;;;;;;4875426;28;45515;-84
2023/10/01 14:17:13;;;;;;;6.50;4.43;;;22.40;49.70;;;;;;4883094;28;45441;-81
2023/10/01 14:19:41;;;;;;;6.07;4.03;;;22.40;49.70;;;;;;4869540;28;45654;-84
2023/10/01 14:22:19;;;;;;;4.60;3.60;;;22.40;49.70;;;;;;4855261;29;45099;-80
2023/10/01 14:24:47;;;;;;;6.13;3.90;;;22.40;49.70;;;;;;4873617;28;47312;-80
2023/10/01 14:27:26;;;;;;;6.77;4.43;;;22.50;49.80;;;;;;4854139;29;44660;-80
2023/10/01 14:30:01;;;;;;;5.45;3.78;;;22.40;49.70;;;;;;4867023;28;45182;-83
2023/10/01 14:32:35;;;;;;;5.95;3.95;;;22.40;49.70;;;;;;4869039;28;44730;-82
2023/10/01 14:35:16;;;;;;;5.75;3.92;;;22.40;49.70;;;;;;4872491;28;46049;-82
2023/10/01 14:37:54;;;;;;;5.53;3.67;;;22.40;49.70;;;;;;4867663;29;45399;-80
2023/10/01 14:40:29;;;;;;;6.10;4.00;;;22.40;49.70;;;;;;4894581;28;45073;-81
2023/10/01 14:42:59;;;;;;;5.28;3.78;;;22.40;49.80;;;;;;4890226;28;45243;-81
2023/10/01 14:45:42;;;;;;;5.20;3.80;;;22.40;49.80;;;;;;4887380;28;45792;-82
2023/10/01 14:48:08;;;;;;;5.45;3.78;;;22.40;49.80;;;;;;4891770;28;45206;-80
2023/10/01 14:50:40;;;;;;;5.55;3.80;;;22.40;49.80;;;;;;4890190;28;45416;-80
2023/10/01 14:53:10;;;;;;;6.35;4.07;;;22.40;49.80;;;;;;4859058;28;44695;-84
2023/10/01 14:55:43;;;;;;;5.63;3.72;;;22.40;49.80;;;;;;4851143;29;46160;-84
2023/10/01 14:58:13;;;;;;;5.43;3.63;;;22.40;49.80;;;;;;4876857;28;44919;-80
2023/10/01 15:00:52;;;;;;;5.47;3.67;;;22.40;49.80;;;;;;4858622;28;45701;-82
2023/10/01 15:03:43;;;;;;;5.30;3.60;;;22.50;49.90;;;;;;4903745;28;45343;-80
2023/10/01 15:06:08;;;;;;;6.63;4.07;;;22.40;49.80;;;;;;4908174;28;45950;-81
2023/10/01 15:08:35;;;;;;;5.45;3.50;;;22.40;49.80;;;;;;4909953;28;45072;-80
2023/10/01 15:11:11;;;;;;;6.22;3.85;;;22.40;49.90;;;;;;4889695;28;45480;-82
2023/10/01 15:13:40;;;;;;;5.70;3.88;;;22.40;49.80;;;;;;4893623;28;44679;-80
2023/10/01 15:16:12;;;;;;;6.25;4.15;;;22.50;49.90;;;;;;4903302;28;47981;-81
2023/10/01 15:18:40;;;;;;;5.93;3.85;;;22.50;49.90;;;;;;4903227;28;45240;-80
2023/10/01 15:24:07;;;;;;;5.37;3.60;;;22.50;49.90;;;;;;4889986;28;45157;-81
2023/10/01 15:26:33;;;;;;;5.10;3.55;;;22.50;50.00;;;;;;4920025;28;45368;-81
2023/10/01 15:29:00;;;;;;;5.55;3.60;;;22.40;49.90;;;;;;4889485;28;45287;-82
2023/10/01 15:31:30;;;;;;;5.80;3.90;;;22.50;49.90;;;;;;4887373;28;45829;-81
2023/10/01 15:34:38;;;;;;;7.70;4.38;;;22.50;50.00;;;;;;4924630;28;45610;-81
2023/10/01 15:37:03;;;;;;;6.90;3.90;;;22.50;50.00;;;;;;4898855;28;46133;-80
2023/10/01 15:42:11;;;;;;;5.65;3.70;;;22.40;49.90;;;;;;4929847;28;44937;-82
2023/10/01 15:44:44;;;;;;;5.85;4.07;;;22.50;50.00;;;;;;4891984;28;45524;-80
2023/10/01 15:47:25;;;;;;;5.65;3.53;;;22.50;50.00;;;;;;4906219;28;45374;-83
2023/10/01 15:49:55;;;;;;;5.32;3.53;;;22.50;50.00;;;;;;4898686;28;45187;-81
2023/10/01 15:52:25;;;;;;;5.35;3.67;;;22.50;50.00;;;;;;4911030;28;45431;-82
2023/10/01 15:54:57;;;;;;;4.73;3.40;;;22.50;50.00;;;;;;4924868;28;45371;-83
2023/10/01 15:57:23;;;;;;;6.15;3.97;;;22.50;50.00;;;;;;4917797;28;45799;-82
2023/10/01 16:00:23;;;;;;;5.53;3.88;;;22.50;50.00;;;;;;4907298;28;45153;-82
2023/10/01 16:02:50;;;;;;;4.75;3.70;;;22.50;50.00;;;;;;4895174;28;46086;-81
2023/10/01 16:05:16;;;;;;;6.28;3.80;;;22.50;50.00;;;;;;4909061;28;45203;-80
2023/10/01 16:07:45;;;;;;;5.97;3.97;;;22.50;50.00;;;;;;4893771;28;45366;-81
2023/10/01 16:10:11;;;;;;;5.20;3.72;;;22.50;50.00;;;;;;4928160;28;45291;-83
2023/10/01 16:12:40;;;;;;;5.97;4.03;;;22.50;50.10;;;;;;4894013;28;45160;-81
2023/10/01 16:15:32;;;;;;;5.50;3.77;;;22.50;50.10;;;;;;4876976;28;45994;-88
2023/10/01 16:18:08;;;;;;;5.40;3.70;;;22.50;50.10;;;;;;4910264;28;46255;-83
2023/10/01 16:20:36;;;;;;;5.47;3.60;;;22.50;50.00;;;;;;4921682;28;45610;-81
2023/10/01 16:23:14;;;;;;;6.07;3.90;;;22.50;50.10;;;;;;4891642;28;45215;-80
2023/10/01 16:25:40;;;;;;;5.75;3.58;;;22.50;50.00;;;;;;4905652;28;45145;-81
2023/10/01 16:28:19;;;;;;;5.10;3.67;;;22.50;50.10;;;;;;4895379;28;46023;-80
2023/10/01 16:31:04;;;;;;;5.80;3.80;;;22.50;50.10;;;;;;4907893;28;45311;-83
2023/10/01 16:33:40;;;;;;;5.32;3.67;;;22.50;50.10;;;;;;4890094;28;45288;-83
2023/10/01 16:36:10;;;;;;;5.82;3.55;;;22.50;50.20;;;;;;4909488;28;45871;-81
2023/10/01 16:38:40;;;;;;;5.63;3.72;;;22.50;50.10;;;;;;4894832;28;47003;-85
2023/10/01 16:41:10;;;;;;;5.97;3.58;;;22.50;50.10;;;;;;4928295;28;45679;-80
2023/10/01 16:43:39;;;;;;;5.40;3.50;;;22.50;50.10;;;;;;4905648;28;45275;-81
2023/10/01 16:46:07;;;;;;;4.95;3.33;;;22.50;50.10;;;;;;4919299;28;45395;-81
2023/10/01 16:48:34;;;;;;;5.23;3.63;;;22.50;50.10;;;;;;4924778;28;46656;-81
2023/10/01 16:51:00;;;;;;;5.50;3.55;;;22.50;50.10;;;;;;4895753;28;45243;-81
2023/10/01 16:53:28;;;;;;;5.32;3.47;;;22.50;50.10;;;;;;4907904;28;45217;-80
2023/10/01 16:55:54;;;;;;;6.25;4.00;;;22.50;50.10;;;;;;4876770;28;45235;-86
2023/10/01 16:58:34;;;;;;;4.68;3.20;;;22.50;50.10;;;;;;4907606;28;46237;-84
2023/10/01 17:01:13;;;;;;;5.43;3.47;;;22.50;50.10;;;;;;4904008;28;45177;-82
2023/10/01 17:04:03;;;;;;;5.50;3.50;;;22.50;50.10;;;;;;4891174;28;45488;-88
2023/10/01 17:06:33;;;;;;;5.17;3.70;;;22.50;50.10;;;;;;4872751;29;45567;-81
2023/10/01 17:09:11;;;;;;;5.70;3.60;;;22.50;50.10;;;;;;4871241;28;45493;-81
2023/10/01 17:11:39;;;;;;;5.43;3.80;;;22.50;50.10;;;;;;4871012;29;45212;-80
2023/10/01 17:14:14;;;;;;;5.50;3.58;;;22.50;50.10;;;;;;4848590;28;45410;-81
2023/10/01 17:16:43;;;;;;;7.05;3.60;;;22.50;50.10;;;;;;4885182;28;45751;-88
2023/10/01 17:19:09;;;;;;;5.30;3.50;;;22.50;50.10;;;;;;4880086;28;46656;-84
2023/10/01 17:21:36;;;;;;;5.30;3.67;;;22.50;50.10;;;;;;4862793;28;45823;-82
2023/10/01 17:24:21;;;;;;;5.65;3.80;;;22.50;50.10;;;;;;4853100;28;45185;-81
2023/10/01 17:26:50;;;;;;;5.68;3.70;;;22.50;50.10;;;;;;4874846;28;45479;-82
2023/10/01 17:29:22;;;;;;;4.53;3.38;;;22.50;50.10;;;;;;4854498;29;46502;-82
2023/10/01 17:31:56;;;;;;;6.47;4.03;;;22.50;50.10;;;;;;4858862;28;45595;-83
2023/10/01 17:34:24;;;;;;;5.38;3.78;;;22.50;50.10;;;;;;4851060;29;45943;-82
2023/10/01 17:36:53;;;;;;;5.03;3.70;;;22.50;50.10;;;;;;4875277;28;45825;-83
2023/10/01 17:39:19;;;;;;;6.15;4.00;;;22.50;50.10;;;;;;4866851;28;45678;-84
2023/10/01 17:41:48;;;;;;;4.75;3.35;;;22.50;50.10;;;;;;4862116;28;45140;-82
2023/10/01 17:44:15;;;;;;;5.60;3.78;;;22.50;50.10;;;;;;4877386;28;45690;-82
2023/10/01 17:46:42;;;;;;;6.38;3.60;;;22.50;50.10;;;;;;4859133;28;45629;-86